Carnival Splendor — 3EUS — position and weather

sailwx.info

Track history (hours):
 
Tides and Currents Weather Stations Pressure Air Temp Water Temp Dewpoint Dewpoint Depression Visibility Wind Speed Wind Dir Waves Ship Positions

Carnival Splendor

Last reported at 2020-Mar-31 11:30 UTC. Time now 2020-Apr-02 04:26 UTC.
Position S 34°10' E 151°54'.

Length 291 m; draft 8.5 m.

Type: Passenger vessel. MMSI: 372808000.

Date/timePositionNaut miles runAvg speedWind from/ knotsBaromVisibWave heightAir tempDewpointWater temp
2020-Mar-31 11:30S 34°10' E 151°54'610.9
2020-Mar-31 10:59S 34°13' E 151°49'1811.9
2020-Mar-31 09:31S 34°23' E 151°32'112.2
2020-Mar-31 09:27S 34°23' E 151°31'7 0.2
2020-Mar-29 22:30S 34°19' E 151°38'1 1.4
2020-Mar-29 21:30S 34°19' E 151°40'1 1.4
2020-Mar-29 20:30S 34°19' E 151°41'1 1.1
2020-Mar-29 19:30S 34°18' E 151°42'1 1.4
2020-Mar-29 19:00S 34°17' E 151°43'2 1.6
2020-Mar-29 17:59S 34°16' E 151°44'1 2.1
2020-Mar-29 17:23S 34°15' E 151°46'2 2.8
2020-Mar-29 16:30S 34°15' E 151°48'8 3.8
2020-Mar-29 14:30S 34°16' E 151°58'1910.3
2020-Mar-29 12:39S 34°33' E 152°08'19 0.8
2020-Mar-28 12:30S 34°19' E 151°54'1 2.8
2020-Mar-28 12:00S 34°17' E 151°53'2 3.0
2020-Mar-28 11:27S 34°16' E 151°53'17 0.8
2020-Mar-27 13:25S 34°19' E 151°32'14 0.4
2020-Mar-25 23:01S 34°07' E 151°41'  
2020-Mar-22 17:05S 34°16' E 151°28'10 9.5
2020-Mar-22 16:00S 34°06' E 151°31'21 5.2
2020-Mar-22 12:00S 33°51' E 151°13'0 0.0
2020-Mar-22 08:29S 33°52' E 151°13'3 0.5
2020-Mar-22 03:04S 33°50' E 151°16'713.2
2020-Mar-22 02:30S 33°50' E 151°25'15 5.1
2020-Mar-21 23:30S 33°46' E 151°43'7 7.5
2020-Mar-21 22:30S 33°51' E 151°49'28 4.6
2020-Mar-21 16:28S 34°19' E 151°47'  
Track history (hours):
 
Tides and Currents Weather Stations Pressure Air Temp Water Temp Dewpoint Dewpoint Depression Visibility Wind Speed Wind Dir Waves Ship Positions

Carnival Splendor

Last reported at 2020-Mar-31 11:30 UTC. Time now 2020-Apr-02 04:26 UTC.
Position S 34°10' E 151°54'.

Length 291 m; draft 8.5 m.

Type: Passenger vessel. MMSI: 372808000.

Date/timePositionNaut miles runAvg speedWind from/ knotsBaromVisibWave heightAir tempDewpointWater temp
2020-Mar-31 11:30S 34°10' E 151°54'610.9
2020-Mar-31 10:59S 34°13' E 151°49'1811.9
2020-Mar-31 09:31S 34°23' E 151°32'112.2
2020-Mar-31 09:27S 34°23' E 151°31'7 0.2
2020-Mar-29 22:30S 34°19' E 151°38'1 1.4
2020-Mar-29 21:30S 34°19' E 151°40'1 1.4
2020-Mar-29 20:30S 34°19' E 151°41'1 1.1
2020-Mar-29 19:30S 34°18' E 151°42'1 1.4
2020-Mar-29 19:00S 34°17' E 151°43'2 1.6
2020-Mar-29 17:59S 34°16' E 151°44'1 2.1
2020-Mar-29 17:23S 34°15' E 151°46'2 2.8
2020-Mar-29 16:30S 34°15' E 151°48'8 3.8
2020-Mar-29 14:30S 34°16' E 151°58'1910.3
2020-Mar-29 12:39S 34°33' E 152°08'19 0.8
2020-Mar-28 12:30S 34°19' E 151°54'1 2.8
2020-Mar-28 12:00S 34°17' E 151°53'2 3.0
2020-Mar-28 11:27S 34°16' E 151°53'17 0.8
2020-Mar-27 13:25S 34°19' E 151°32'14 0.4
2020-Mar-25 23:01S 34°07' E 151°41'  
2020-Mar-22 17:05S 34°16' E 151°28'10 9.5
2020-Mar-22 16:00S 34°06' E 151°31'21 5.2
2020-Mar-22 12:00S 33°51' E 151°13'0 0.0
2020-Mar-22 08:29S 33°52' E 151°13'3 0.5
2020-Mar-22 03:04S 33°50' E 151°16'713.2
2020-Mar-22 02:30S 33°50' E 151°25'15 5.1
2020-Mar-21 23:30S 33°46' E 151°43'7 7.5
2020-Mar-21 22:30S 33°51' E 151°49'28 4.6
2020-Mar-21 16:28S 34°19' E 151°47'  

Dump ship's entire track history